createdAt,value
2022-09-02T00:00:22.082Z,29.50
2022-09-02T00:02:53.635Z,29.40
2022-09-02T00:05:25.089Z,29.40
2022-09-02T00:07:56.678Z,29.30
2022-09-02T00:10:27.462Z,29.30
2022-09-02T00:12:58.623Z,29.30
2022-09-02T00:15:29.587Z,29.30
2022-09-02T00:18:00.061Z,29.20
2022-09-02T00:20:32.663Z,29.20
2022-09-02T00:23:04.864Z,29.20
2022-09-02T00:25:35.433Z,29.10
2022-09-02T00:28:08.140Z,29.10
2022-09-02T00:30:43.233Z,29.00
2022-09-02T00:33:14.306Z,29.00
2022-09-02T00:35:46.485Z,29.00
2022-09-02T00:38:17.104Z,29.00
2022-09-02T00:40:52.684Z,29.00
2022-09-02T00:43:41.535Z,29.10
2022-09-02T00:46:13.556Z,29.20
2022-09-02T00:49:00.110Z,29.10
2022-09-02T00:51:35.804Z,28.90
2022-09-02T00:54:09.405Z,28.80
2022-09-02T00:56:44.727Z,28.60
2022-09-02T00:59:51.538Z,28.60
2022-09-02T01:02:24.961Z,28.50
2022-09-02T01:04:57.866Z,28.50
2022-09-02T01:07:39.538Z,28.50
2022-09-02T01:10:16.619Z,28.40
2022-09-02T01:12:48.742Z,28.40
2022-09-02T01:15:18.792Z,28.40
2022-09-02T01:17:52.945Z,28.40
2022-09-02T01:20:27.331Z,28.30
2022-09-02T01:22:59.860Z,28.20
2022-09-02T01:25:34.734Z,28.10
2022-09-02T01:28:12.772Z,28.20
2022-09-02T01:30:48.588Z,28.00
2022-09-02T01:33:20.491Z,28.00
2022-09-02T01:35:52.160Z,28.00
2022-09-02T01:38:24.611Z,28.00
2022-09-02T01:40:55.351Z,27.90
2022-09-02T01:43:31.161Z,27.90
2022-09-02T01:46:03.637Z,27.80
2022-09-02T01:48:36.150Z,27.80
2022-09-02T01:51:14.055Z,27.70
2022-09-02T01:53:53.107Z,27.60
2022-09-02T01:56:24.633Z,27.60
2022-09-02T01:58:59.293Z,27.50
2022-09-02T02:01:34.323Z,27.30
2022-09-02T02:04:07.503Z,27.20
2022-09-02T02:06:52.374Z,27.20
2022-09-02T02:09:24.457Z,27.20
2022-09-02T02:11:56.233Z,27.10
2022-09-02T02:14:29.794Z,27.10
2022-09-02T02:16:59.350Z,27.10
2022-09-02T02:19:34.220Z,26.90
2022-09-02T02:22:04.224Z,26.70
2022-09-02T02:24:36.630Z,26.80
2022-09-02T02:27:07.220Z,26.80
2022-09-02T02:29:41.189Z,26.70
2022-09-02T02:32:12.592Z,26.60
2022-09-02T02:34:44.057Z,26.50
2022-09-02T02:37:16.751Z,26.50
2022-09-02T02:39:49.906Z,26.40
2022-09-02T02:42:20.686Z,26.30
2022-09-02T02:44:52.860Z,26.10
2022-09-02T02:47:29.673Z,26.20
2022-09-02T02:49:59.842Z,26.10
2022-09-02T02:52:29.845Z,26.10
2022-09-02T02:55:01.111Z,26.00
2022-09-02T02:57:32.592Z,25.90
2022-09-02T03:00:19.608Z,25.80
2022-09-02T03:02:51.523Z,25.70
2022-09-02T03:05:25.244Z,25.60
2022-09-02T03:07:56.227Z,25.50
2022-09-02T03:10:29.308Z,25.50
2022-09-02T03:13:01.354Z,25.40
2022-09-02T03:15:35.493Z,25.40
2022-09-02T03:18:08.460Z,25.40
2022-09-02T03:20:39.413Z,25.40
2022-09-02T03:23:15.052Z,25.40
2022-09-02T03:25:52.922Z,25.40
2022-09-02T03:28:37.189Z,25.40
2022-09-02T03:31:22.883Z,25.40
2022-09-02T03:33:54.167Z,25.30
2022-09-02T03:36:35.786Z,25.30
2022-09-02T03:39:10.590Z,25.40
2022-09-02T03:41:45.313Z,25.40
2022-09-02T03:44:17.126Z,25.40
2022-09-02T03:46:49.453Z,25.30
2022-09-02T03:49:20.436Z,25.30
2022-09-02T03:51:52.609Z,25.20
2022-09-02T03:54:23.008Z,25.20
2022-09-02T03:56:57.968Z,25.30
2022-09-02T03:59:29.813Z,25.30
2022-09-02T04:02:04.630Z,25.20
2022-09-02T04:04:40.499Z,25.30
2022-09-02T04:07:11.634Z,25.30
2022-09-02T04:09:46.992Z,25.30
2022-09-02T04:12:18.189Z,25.20
2022-09-02T04:14:49.008Z,25.30
2022-09-02T04:17:24.085Z,25.30
2022-09-02T04:19:56.654Z,25.30
2022-09-02T04:22:31.841Z,25.30
2022-09-02T04:25:02.425Z,25.30
2022-09-02T04:27:34.031Z,25.30
2022-09-02T04:30:05.780Z,25.20
2022-09-02T04:32:40.805Z,25.20
2022-09-02T04:35:12.066Z,25.30
2022-09-02T04:37:44.435Z,25.10
2022-09-02T04:40:18.712Z,25.10
2022-09-02T04:42:49.154Z,25.20
2022-09-02T04:45:29.920Z,25.20
2022-09-02T04:48:01.067Z,25.10
2022-09-02T04:50:34.517Z,25.00
2022-09-02T04:53:06.044Z,25.10
2022-09-02T04:55:38.363Z,25.10
2022-09-02T04:58:12.873Z,25.10
2022-09-02T05:00:44.243Z,24.90
2022-09-02T05:03:17.017Z,24.90
2022-09-02T05:05:50.032Z,25.00
2022-09-02T05:08:26.821Z,25.00
2022-09-02T05:11:00.418Z,24.90
2022-09-02T05:13:33.295Z,24.80
2022-09-02T05:16:04.195Z,24.90
2022-09-02T05:18:36.425Z,24.90
2022-09-02T05:21:09.055Z,24.80
2022-09-02T05:23:44.351Z,24.70
2022-09-02T05:26:17.745Z,24.70
2022-09-02T05:28:48.861Z,24.80
2022-09-02T05:31:22.189Z,24.80
2022-09-02T05:33:55.371Z,24.80
2022-09-02T05:36:25.202Z,24.80
2022-09-02T05:38:57.291Z,24.80
2022-09-02T05:41:31.026Z,24.80
2022-09-02T05:44:07.026Z,24.80
2022-09-02T05:46:38.798Z,24.90
2022-09-02T05:49:10.882Z,24.90
2022-09-02T05:52:03.039Z,24.80
2022-09-02T05:54:46.152Z,24.80
2022-09-02T05:57:34.379Z,24.80
2022-09-02T06:00:09.207Z,24.90
2022-09-02T06:02:48.098Z,24.90
2022-09-02T06:05:24.332Z,24.90
2022-09-02T06:08:03.834Z,25.00
2022-09-02T06:10:44.417Z,24.90
2022-09-02T06:13:24.182Z,24.90
2022-09-02T06:15:56.423Z,24.80
2022-09-02T06:18:34.561Z,24.80
2022-09-02T06:21:07.213Z,24.90
2022-09-02T06:23:44.876Z,25.00
2022-09-02T06:26:18.308Z,24.90
2022-09-02T06:28:49.396Z,24.90
2022-09-02T06:31:27.976Z,24.80
2022-09-02T06:34:06.626Z,24.80
2022-09-02T06:36:37.114Z,24.80
2022-09-02T06:39:08.598Z,24.80
2022-09-02T06:41:43.831Z,24.80
2022-09-02T06:44:18.712Z,24.80
2022-09-02T06:47:01.507Z,24.80
2022-09-02T06:49:32.099Z,24.80
2022-09-02T06:52:03.478Z,25.00
2022-09-02T06:54:37.965Z,25.00
2022-09-02T06:57:14.638Z,25.00
2022-09-02T06:59:48.219Z,25.00
2022-09-02T07:02:22.940Z,25.00
2022-09-02T07:05:17.244Z,25.00
2022-09-02T07:07:54.059Z,25.00
2022-09-02T07:10:25.148Z,25.00
2022-09-02T07:12:59.944Z,24.90
2022-09-02T07:15:32.040Z,25.00
2022-09-02T07:18:05.230Z,25.00
2022-09-02T07:20:40.810Z,24.90
2022-09-02T07:23:13.145Z,25.00
2022-09-02T07:25:46.095Z,24.90
2022-09-02T07:28:20.161Z,24.90
2022-09-02T07:30:59.651Z,24.90
2022-09-02T07:33:30.861Z,24.90
2022-09-02T07:36:03.676Z,24.90
2022-09-02T07:38:36.427Z,24.90
2022-09-02T07:41:08.954Z,24.90
2022-09-02T07:43:42.517Z,24.90
2022-09-02T07:46:15.803Z,24.90
2022-09-02T07:48:48.746Z,24.80
2022-09-02T07:51:23.263Z,24.80
2022-09-02T07:53:58.190Z,24.70
2022-09-02T07:56:29.012Z,24.80
2022-09-02T07:59:01.767Z,24.80
2022-09-02T08:01:33.829Z,24.80
2022-09-02T08:04:07.775Z,24.80
2022-09-02T08:06:41.069Z,24.80
2022-09-02T08:09:14.524Z,24.80
2022-09-02T08:11:49.918Z,24.80
2022-09-02T08:14:39.942Z,24.80
2022-09-02T08:17:13.639Z,24.80
2022-09-02T08:19:46.476Z,24.80
2022-09-02T08:22:19.554Z,24.60
2022-09-02T08:24:51.351Z,24.60
2022-09-02T08:27:22.992Z,24.60
2022-09-02T08:29:53.687Z,24.60
2022-09-02T08:32:24.091Z,24.70
2022-09-02T08:34:59.201Z,24.60
2022-09-02T08:37:30.542Z,24.40
2022-09-02T08:40:05.240Z,24.40
2022-09-02T08:42:53.218Z,24.40
2022-09-02T08:45:25.701Z,24.40
2022-09-02T08:48:38.436Z,24.50
2022-09-02T08:51:21.982Z,24.60
2022-09-02T08:53:57.211Z,24.60
2022-09-02T08:56:29.537Z,24.50
2022-09-02T08:59:05.324Z,24.60
2022-09-02T09:02:03.037Z,24.60
2022-09-02T09:04:53.761Z,24.40
2022-09-02T09:07:39.819Z,24.40
2022-09-02T09:10:30.415Z,24.50
2022-09-02T09:13:18.998Z,24.50
2022-09-02T09:16:11.855Z,24.30
2022-09-02T09:18:59.105Z,24.30
2022-09-02T09:21:30.854Z,24.30
2022-09-02T09:24:11.105Z,24.30
2022-09-02T09:26:44.080Z,24.30
2022-09-02T09:29:14.621Z,24.30
2022-09-02T09:31:46.384Z,24.40
2022-09-02T09:34:17.102Z,24.50
2022-09-02T09:36:54.721Z,24.50
2022-09-02T09:39:27.445Z,24.50
2022-09-02T09:42:05.662Z,24.50
2022-09-02T09:44:49.583Z,24.40
2022-09-02T09:47:26.918Z,24.40
2022-09-02T09:50:17.514Z,24.50
2022-09-02T09:52:50.194Z,24.50
2022-09-02T09:55:41.345Z,24.50
2022-09-02T09:58:17.078Z,24.50
2022-09-02T10:00:57.639Z,24.30
2022-09-02T10:03:33.188Z,24.40
2022-09-02T10:06:21.880Z,24.40
2022-09-02T10:09:21.239Z,24.50
2022-09-02T10:12:09.533Z,24.50
2022-09-02T10:14:45.931Z,24.50
2022-09-02T10:17:26.994Z,24.50
2022-09-02T10:19:58.805Z,24.60
2022-09-02T10:22:58.911Z,24.60
2022-09-02T10:25:57.766Z,24.60
2022-09-02T10:29:03.421Z,24.50
2022-09-02T10:31:51.844Z,24.50
2022-09-02T10:34:22.959Z,24.50
2022-09-02T10:36:59.616Z,24.50
2022-09-02T10:40:04.273Z,24.50
2022-09-02T10:43:00.489Z,24.50
2022-09-02T10:45:45.762Z,24.50
2022-09-02T10:48:24.007Z,24.50
2022-09-02T10:51:16.036Z,24.50
2022-09-02T10:54:15.890Z,24.50
2022-09-02T10:57:15.362Z,24.40
2022-09-02T11:00:08.350Z,24.40
2022-09-02T11:02:56.714Z,24.40
2022-09-02T11:05:44.848Z,24.40
2022-09-02T11:08:28.338Z,24.40
2022-09-02T11:11:15.776Z,24.40
2022-09-02T11:14:17.174Z,24.30
2022-09-02T11:17:12.876Z,24.20
2022-09-02T11:20:02.770Z,24.20
2022-09-02T11:23:02.997Z,24.30
2022-09-02T11:25:41.221Z,24.30
2022-09-02T11:28:32.707Z,24.30
2022-09-02T11:31:08.103Z,24.40
2022-09-02T11:34:19.319Z,24.30
2022-09-02T11:36:52.038Z,24.40
2022-09-02T11:40:11.490Z,24.40
2022-09-02T11:43:12.777Z,24.30
2022-09-02T11:46:27.192Z,24.30
2022-09-02T11:49:34.296Z,24.30
2022-09-02T11:55:22.160Z,24.30
2022-09-02T11:58:00.549Z,24.40
2022-09-02T12:00:38.855Z,24.30
2022-09-02T12:03:28.573Z,24.20
2022-09-02T12:06:16.317Z,24.20
2022-09-02T12:08:46.424Z,24.10
2022-09-02T12:11:50.500Z,24.10
2022-09-02T12:14:23.474Z,24.30
2022-09-02T12:17:12.787Z,24.30
2022-09-02T12:19:49.666Z,24.30
2022-09-02T12:22:28.579Z,24.30
2022-09-02T12:24:59.615Z,24.30
2022-09-02T12:27:38.867Z,24.30
2022-09-02T12:30:39.145Z,24.30
2022-09-02T12:33:35.672Z,24.30
2022-09-02T12:36:11.240Z,24.30
2022-09-02T12:38:44.197Z,24.20
2022-09-02T12:41:28.378Z,24.10
2022-09-02T12:44:07.354Z,24.20
2022-09-02T12:46:46.899Z,24.20
2022-09-02T12:49:49.493Z,24.30
2022-09-02T12:52:37.843Z,24.30
2022-09-02T12:55:15.711Z,24.30
2022-09-02T12:57:55.925Z,24.40
2022-09-02T13:01:03.714Z,24.40
2022-09-02T13:04:03.978Z,24.40
2022-09-02T13:06:36.609Z,24.50
2022-09-02T13:09:05.980Z,24.50
2022-09-02T13:12:11.104Z,24.50
2022-09-02T13:15:24.241Z,24.50
2022-09-02T13:18:32.900Z,24.50
2022-09-02T13:21:33.648Z,24.50
2022-09-02T13:24:32.587Z,24.50
2022-09-02T13:27:02.631Z,24.60
2022-09-02T13:30:04.794Z,24.60
2022-09-02T13:32:37.054Z,24.60
2022-09-02T13:35:21.479Z,24.70
2022-09-02T13:38:02.287Z,24.70
2022-09-02T13:40:39.260Z,24.70
2022-09-02T13:43:15.580Z,24.70
2022-09-02T13:45:49.209Z,24.80
2022-09-02T13:48:22.654Z,24.80
2022-09-02T13:51:01.444Z,24.80
2022-09-02T13:54:05.059Z,24.90
2022-09-02T13:56:35.390Z,25.00
2022-09-02T13:59:06.636Z,25.00
2022-09-02T14:01:43.591Z,25.00
2022-09-02T14:04:18.260Z,25.00
2022-09-02T14:06:52.770Z,25.10
2022-09-02T14:09:28.197Z,25.10
2022-09-02T14:12:02.002Z,25.10
2022-09-02T14:14:34.556Z,25.10
2022-09-02T14:17:26.296Z,25.10
2022-09-02T14:20:20.701Z,25.20
2022-09-02T14:23:01.382Z,25.10
2022-09-02T14:25:39.836Z,25.20
2022-09-02T14:28:22.584Z,25.40
2022-09-02T14:31:09.154Z,25.40
2022-09-02T14:33:39.930Z,25.40
2022-09-02T14:36:39.053Z,25.50
2022-09-02T14:39:20.083Z,25.50
2022-09-02T14:41:57.845Z,25.50
2022-09-02T14:44:33.366Z,25.60
2022-09-02T14:47:09.213Z,25.70
2022-09-02T14:49:50.403Z,25.80
2022-09-02T14:52:37.936Z,25.90
2022-09-02T14:55:55.306Z,26.00
2022-09-02T14:58:28.830Z,26.10
2022-09-02T15:01:05.654Z,26.10
2022-09-02T15:03:39.443Z,26.00
2022-09-02T15:06:14.531Z,26.10
2022-09-02T15:08:44.586Z,26.10
2022-09-02T15:11:21.521Z,26.10
2022-09-02T15:13:55.178Z,26.00
2022-09-02T15:16:28.116Z,26.00
2022-09-02T15:18:58.731Z,26.10
2022-09-02T15:21:34.852Z,26.10
2022-09-02T15:24:06.511Z,26.10
2022-09-02T15:26:37.192Z,26.20
2022-09-02T15:29:07.488Z,26.20
2022-09-02T15:31:37.547Z,26.10
2022-09-02T15:34:08.137Z,26.20
2022-09-02T15:36:40.185Z,26.20
2022-09-02T15:39:10.279Z,26.10
2022-09-02T15:41:40.718Z,26.20
2022-09-02T15:44:11.844Z,26.40
2022-09-02T15:46:45.668Z,26.50
2022-09-02T15:49:18.650Z,26.60
2022-09-02T15:51:55.547Z,26.70
2022-09-02T15:54:28.271Z,26.70
2022-09-02T15:57:00.391Z,26.70
2022-09-02T15:59:34.211Z,26.70
2022-09-02T16:02:05.162Z,26.80
2022-09-02T16:04:35.004Z,26.90
2022-09-02T16:07:08.110Z,26.90
2022-09-02T16:09:38.763Z,27.00
2022-09-02T16:12:10.447Z,27.20
2022-09-02T16:14:40.170Z,27.50
2022-09-02T16:17:14.530Z,27.50
2022-09-02T16:19:46.442Z,27.60
2022-09-02T16:22:17.805Z,27.70
2022-09-02T16:24:53.332Z,27.70
2022-09-02T16:27:45.418Z,27.50
2022-09-02T16:30:15.681Z,27.60
2022-09-02T16:32:55.014Z,27.70
2022-09-02T16:35:26.544Z,27.70
2022-09-02T16:37:58.890Z,27.70
2022-09-02T16:40:31.029Z,27.70
2022-09-02T16:43:04.585Z,27.70
2022-09-02T16:45:35.710Z,27.80
2022-09-02T16:48:05.817Z,27.70
2022-09-02T16:50:36.761Z,27.90
2022-09-02T16:53:07.080Z,28.10
2022-09-02T16:55:43.052Z,28.30
2022-09-02T16:58:14.920Z,28.20
2022-09-02T17:00:48.116Z,28.40
2022-09-02T17:03:24.759Z,28.50
2022-09-02T17:05:58.032Z,28.30
2022-09-02T17:08:28.495Z,28.30
2022-09-02T17:11:35.911Z,28.30
2022-09-02T17:14:11.672Z,28.50
2022-09-02T17:16:47.224Z,28.50
2022-09-02T17:19:22.374Z,28.70
2022-09-02T17:21:56.910Z,28.50
2022-09-02T17:24:33.009Z,28.50
2022-09-02T17:27:06.033Z,28.50
2022-09-02T17:29:51.606Z,28.80
2022-09-02T17:32:21.504Z,28.90
2022-09-02T17:34:52.220Z,28.90
2022-09-02T17:37:23.384Z,28.90
2022-09-02T17:39:56.622Z,28.80
2022-09-02T17:42:30.075Z,29.00
2022-09-02T17:45:02.693Z,29.10
2022-09-02T17:47:35.401Z,29.20
2022-09-02T17:50:06.781Z,29.20
2022-09-02T17:52:37.248Z,29.40
2022-09-02T17:55:09.261Z,29.20
2022-09-02T17:58:04.991Z,29.30
2022-09-02T18:00:43.156Z,29.20
2022-09-02T18:03:42.146Z,29.30
2022-09-02T18:06:30.443Z,29.30
2022-09-02T18:09:04.382Z,29.40
2022-09-02T18:11:40.888Z,29.20
2022-09-02T18:14:17.612Z,29.50
2022-09-02T18:17:02.727Z,29.60
2022-09-02T18:20:05.248Z,29.50
2022-09-02T18:22:45.434Z,29.40
2022-09-02T18:25:39.148Z,29.20
2022-09-02T18:28:27.156Z,29.30
2022-09-02T18:31:31.762Z,29.20
2022-09-02T18:34:19.987Z,29.30
2022-09-02T18:37:32.027Z,29.10
2022-09-02T18:40:09.135Z,29.20
2022-09-02T18:43:10.157Z,29.40
2022-09-02T18:45:52.203Z,29.70
2022-09-02T18:48:35.523Z,30.00
2022-09-02T18:51:27.246Z,30.00
2022-09-02T18:54:05.385Z,30.10
2022-09-02T18:56:39.932Z,30.00
2022-09-02T18:59:26.027Z,30.00
2022-09-02T19:02:05.015Z,30.30
2022-09-02T19:04:38.251Z,30.10
2022-09-02T19:07:27.933Z,30.20
2022-09-02T19:09:59.213Z,30.20
2022-09-02T19:12:36.730Z,30.40
2022-09-02T19:15:20.264Z,30.30
2022-09-02T19:17:51.201Z,30.40
2022-09-02T19:20:23.098Z,30.60
2022-09-02T19:23:00.590Z,30.30
2022-09-02T19:25:32.396Z,30.30
2022-09-02T19:28:07.089Z,30.20
2022-09-02T19:30:40.436Z,30.10
2022-09-02T19:33:15.481Z,30.00
2022-09-02T19:35:53.106Z,30.20
2022-09-02T19:38:25.436Z,30.20
2022-09-02T19:40:56.895Z,30.30
2022-09-02T19:43:28.287Z,30.30
2022-09-02T19:46:01.588Z,30.30
2022-09-02T19:48:33.952Z,30.40
2022-09-02T19:51:07.183Z,30.30
2022-09-02T19:53:40.649Z,30.10
2022-09-02T19:56:14.599Z,30.30
2022-09-02T19:58:47.236Z,30.40
2022-09-02T20:01:17.881Z,30.40
2022-09-02T20:03:48.971Z,30.40
2022-09-02T20:06:19.593Z,30.40
2022-09-02T20:08:51.274Z,30.30
2022-09-02T20:11:22.048Z,30.60
2022-09-02T20:13:55.380Z,30.70
2022-09-02T20:16:32.151Z,30.80
2022-09-02T20:19:05.207Z,30.90
2022-09-02T20:21:48.705Z,30.70
2022-09-02T20:24:28.561Z,30.90
2022-09-02T20:27:08.234Z,30.80
2022-09-02T20:29:59.500Z,31.00
2022-09-02T20:32:57.435Z,30.90
2022-09-02T20:35:40.049Z,31.00
2022-09-02T20:38:30.007Z,31.30
2022-09-02T20:41:18.161Z,31.10
2022-09-02T20:44:35.422Z,31.10
2022-09-02T20:47:25.223Z,30.90
2022-09-02T20:50:11.145Z,31.10
2022-09-02T20:53:09.257Z,31.10
2022-09-02T20:56:12.283Z,31.10
2022-09-02T20:58:52.219Z,31.10
2022-09-02T21:01:32.972Z,31.20
2022-09-02T21:04:09.619Z,31.30
2022-09-02T21:06:48.313Z,31.40
2022-09-02T21:09:21.420Z,31.40
2022-09-02T21:12:04.349Z,31.30
2022-09-02T21:14:52.688Z,31.40
2022-09-02T21:17:31.945Z,31.30
2022-09-02T21:20:22.976Z,31.50
2022-09-02T21:22:59.149Z,31.60
2022-09-02T21:25:41.759Z,31.60
2022-09-02T21:28:18.857Z,31.60
2022-09-02T21:30:59.125Z,31.40
2022-09-02T21:33:33.068Z,31.30
2022-09-02T21:36:04.624Z,31.30
2022-09-02T21:38:47.672Z,31.40
2022-09-02T21:41:36.581Z,31.50
2022-09-02T21:44:16.931Z,31.40
2022-09-02T21:47:21.436Z,31.40
2022-09-02T21:49:57.997Z,31.40
2022-09-02T21:52:27.906Z,31.40
2022-09-02T21:55:24.897Z,31.30
2022-09-02T21:58:18.300Z,31.10
2022-09-02T22:00:57.214Z,31.10
2022-09-02T22:03:50.517Z,30.90
2022-09-02T22:06:44.880Z,30.80
2022-09-02T22:09:22.236Z,30.90
2022-09-02T22:12:07.188Z,30.90
2022-09-02T22:15:00.323Z,30.90
2022-09-02T22:17:52.668Z,30.80
2022-09-02T22:20:30.175Z,30.80
2022-09-02T22:23:12.468Z,30.90
2022-09-02T22:25:44.118Z,31.10
2022-09-02T22:28:42.155Z,31.00
2022-09-02T22:31:18.345Z,30.90
2022-09-02T22:33:59.643Z,31.00
2022-09-02T22:36:50.942Z,30.90
2022-09-02T22:39:32.921Z,30.90
2022-09-02T22:42:14.226Z,31.00
2022-09-02T22:45:34.041Z,30.90
2022-09-02T22:48:48.327Z,30.90
2022-09-02T22:51:52.583Z,30.90
2022-09-02T22:54:27.441Z,30.90
2022-09-02T22:57:35.719Z,30.80
2022-09-02T23:00:17.324Z,30.90
2022-09-02T23:03:05.172Z,30.90
2022-09-02T23:05:46.523Z,30.90
2022-09-02T23:08:23.905Z,30.80
2022-09-02T23:11:12.642Z,30.80
2022-09-02T23:14:27.314Z,30.80
2022-09-02T23:17:36.199Z,30.70
2022-09-02T23:20:32.386Z,30.80
2022-09-02T23:23:35.000Z,30.70
2022-09-02T23:26:13.882Z,30.70
2022-09-02T23:28:43.739Z,30.70
2022-09-02T23:31:25.013Z,30.60
2022-09-02T23:34:15.156Z,30.50
2022-09-02T23:36:53.216Z,30.60
2022-09-02T23:39:45.766Z,30.60
2022-09-02T23:42:17.264Z,30.70
2022-09-02T23:44:52.880Z,30.60
2022-09-02T23:47:44.202Z,30.50
2022-09-02T23:50:48.173Z,30.50
2022-09-02T23:53:51.435Z,30.40
2022-09-02T23:56:37.534Z,30.40
2022-09-02T23:59:16.674Z,30.40
